Giltner, NE (68841)

12:47 AM CDT on August 04, 2015 (GMT -0500)
Buller Spraying, inc. | | Change Station
CLOSE
Current Station
Personal Weather Station
Location: Henderson, NE
Elevation: 1785 ft
Nearby Weather Stations

Elev 1785 ft 40.70 °N, 97.90 °W | Updated 10 seconds ago

Clear
Clear
68.1 °F
Feels Like 68.1 °F
N
0.0
Wind Variable Wind from East
Gusts 0.0 mph

Today
High -- | Low -- °F
--% Chance of Precip.
Yesterday
High -- | Low -- °F
Precip. -- in
6:31 AM 8:44 PM
Waning Gibbous, 81% visible
Pressure 29.98 in
Visibility 10.0 miles
Clouds Clear
Dew Point 66 °F
Humidity 93%
Rainfall 0.00 in
Snow Depth Not available.
UV 0 out of 12
Pollen 7.30 out of 12
Air Quality Not available.
Flu Activity Not available.
METAR KAUH 040535Z AUTO 09006KT 10SM CLR 20/19 A2998 RMK AO2 T01950190

More Conditions Fewer Conditions

Pressure 29.98 in
Visibility 10.0 miles
Clouds Clear
Dew Point 66 °F
Humidity 93%
Rainfall 0.00 in
Snow Depth Not available.
UV 0 out of 12
Pollen 7.30 out of 12
Air Quality Not available.
Flu Activity Not available.
METAR KAUH 040535Z AUTO 09006KT 10SM CLR 20/19 A2998 RMK AO2 T01950190

More Conditions Fewer Conditions

10-Day Weather Forecast

×

Almanac

Astronomy

Aug. 04, 2015 Rise Set
Actual Time
Civil Twilight
Nautical Twilight
Astronomical Twilight
Moon
Length of Visible Light
Length of Day
Tomorrow will be .
, % of the Moon is Illuminated

Today's Extremes

State Highs State Lows

Community

WunderPhotos

Upload Photos

1,843,870 photos uploaded!

WunderBlogs® & News

Nearby

Air Quality

  Air Quality AQ Index Pollutant
Not available.

Snow Depth

Station Depth Elevation

Earthquake Activity

City Distance Mag. Time & Date
Minimum magnitude displayed is 2.5.

Coastal Water Temperatures

Place Temperature

Stations

Nearby Weather Stations

Station Location Temp. Windchill Dew Point Humidity Wind Precip. Elev Updated Type